Time;durP1;ratioP1;P1;durP2;ratioP2;P2;SDS_P1;SDS_P2;PMS_P1;PMS_P2;Temp;Humidity;BMP_temperature;BMP_pressure;BME280_temperature;BME280_humidity;BME280_pressure;Samples;Min_cycle;Max_cycle;Signal;HPM_P1;HPM_P2
2022/12/06 00:00:43;;;;;;;;;;;2.50;90.60;;;;;;5069077;28;19919;-84
2022/12/06 00:03:08;;;;;;;;;;;2.40;90.70;;;;;;5058039;28;19924;-83
2022/12/06 00:05:34;;;;;;;;;;;2.30;90.90;;;;;;5049276;28;19984;-83
2022/12/06 00:07:59;;;;;;;;;;;2.40;91.00;;;;;;5054853;28;19952;-83
2022/12/06 00:10:25;;;;;;;;;;;2.40;90.80;;;;;;5060005;28;19928;-83
2022/12/06 00:12:50;;;;;;;;;;;2.50;90.80;;;;;;5052493;28;20429;-84
2022/12/06 00:15:16;;;;;;;;;;;2.60;91.00;;;;;;5051603;28;20402;-83
2022/12/06 00:17:41;;;;;;;;;;;2.60;90.90;;;;;;5054977;28;19917;-82
2022/12/06 00:20:07;;;;;;;;;;;2.70;90.80;;;;;;5053557;28;19919;-83
2022/12/06 00:22:33;;;;;;;;;;;2.70;90.50;;;;;;5054087;28;19917;-83
2022/12/06 00:24:58;;;;;;;;;;;2.80;90.30;;;;;;5074313;28;20394;-81
2022/12/06 00:27:24;;;;;;;;;;;2.70;90.20;;;;;;5075868;28;19923;-81
2022/12/06 00:29:49;;;;;;;;;;;2.80;90.40;;;;;;5063862;28;19909;-84
2022/12/06 00:32:14;;;;;;;;;;;2.80;90.40;;;;;;5054987;28;20043;-83
2022/12/06 00:34:40;;;;;;;;;;;2.80;90.40;;;;;;5053277;28;19940;-82
2022/12/06 00:37:05;;;;;;;;;;;2.90;90.10;;;;;;5074979;28;19913;-80
2022/12/06 00:39:31;;;;;;;;;;;2.80;90.10;;;;;;5072621;28;19916;-84
2022/12/06 00:41:56;;;;;;;;;;;2.80;90.30;;;;;;5066764;28;19913;-82
2022/12/06 00:44:22;;;;;;;;;;;2.90;90.30;;;;;;5054096;28;19913;-84
2022/12/06 00:46:47;;;;;;;;;;;2.80;90.10;;;;;;5054794;28;19920;-84
2022/12/06 00:49:13;;;;;;;;;;;2.80;90.30;;;;;;5052557;22;19926;-86
2022/12/06 00:51:39;;;;;;;;;;;2.80;90.10;;;;;;5010174;28;19959;-84
2022/12/06 00:54:05;;;;;;;;;;;2.90;90.30;;;;;;4990256;28;19922;-84
2022/12/06 00:56:31;;;;;;;;;;;2.90;90.20;;;;;;5011963;28;19917;-84
2022/12/06 00:58:56;;;;;;;;;;;2.90;90.10;;;;;;4975714;28;19924;-85
2022/12/06 01:01:24;;;;;;;;;;;2.90;90.20;;;;;;4972915;28;19913;-85
2022/12/06 01:03:50;;;;;;;;;;;2.80;90.10;;;;;;4992590;28;19914;-84
2022/12/06 01:06:17;;;;;;;;;;;2.90;90.30;;;;;;4992666;28;19918;-85
2022/12/06 01:08:43;;;;;;;;;;;2.90;90.30;;;;;;4989415;28;19913;-84
2022/12/06 01:11:10;;;;;;;;;;;2.90;90.30;;;;;;4993844;28;20004;-84
2022/12/06 01:13:35;;;;;;;;;;;2.80;90.40;;;;;;4975604;28;19921;-84
2022/12/06 01:16:08;;;;;;;;;;;2.90;90.30;;;;;;4990203;28;20283;-84
2022/12/06 01:18:34;;;;;;;;;;;2.80;90.30;;;;;;4990213;28;20049;-84
2022/12/06 01:21:03;;;;;;;;;;;2.90;90.50;;;;;;4976319;28;20423;-84
2022/12/06 01:23:29;;;;;;;;;;;2.80;90.50;;;;;;4996804;28;19922;-84
2022/12/06 01:25:54;;;;;;;;;;;2.90;90.50;;;;;;4984890;28;20394;-84
2022/12/06 01:28:20;;;;;;;;;;;2.90;90.70;;;;;;4988177;28;20287;-84
2022/12/06 01:30:45;;;;;;;;;;;2.90;90.60;;;;;;4992600;28;19918;-84
2022/12/06 01:33:10;;;;;;;;;;;2.80;90.70;;;;;;4971809;28;20004;-84
2022/12/06 01:35:40;;;;;;;;;;;2.90;90.70;;;;;;4979989;28;19913;-84
2022/12/06 01:38:06;;;;;;;;;;;2.70;90.80;;;;;;4995296;28;19925;-84
2022/12/06 01:40:35;;;;;;;;;;;2.80;90.90;;;;;;4976581;28;19914;-83
2022/12/06 01:43:01;;;;;;;;;;;2.80;90.90;;;;;;4981574;28;19926;-84
2022/12/06 01:45:26;;;;;;;;;;;2.80;91.00;;;;;;4992956;28;20376;-84
2022/12/06 01:47:52;;;;;;;;;;;3.00;91.00;;;;;;4987733;28;20408;-84
2022/12/06 01:50:23;;;;;;;;;;;3.00;90.70;;;;;;4991884;28;19972;-83
2022/12/06 01:52:48;;;;;;;;;;;3.00;90.70;;;;;;4973182;28;19913;-83
2022/12/06 01:55:14;;;;;;;;;;;3.00;90.70;;;;;;4971624;28;20000;-83
2022/12/06 01:57:39;;;;;;;;;;;3.00;90.80;;;;;;4972295;28;20395;-83
2022/12/06 02:00:06;;;;;;;;;;;3.00;90.70;;;;;;4990031;28;19937;-84
2022/12/06 02:02:31;;;;;;;;;;;3.00;90.80;;;;;;4991701;28;19913;-85
2022/12/06 02:04:57;;;;;;;;;;;3.00;90.70;;;;;;4977228;28;20376;-84
2022/12/06 02:07:23;;;;;;;;;;;3.10;90.60;;;;;;4991004;28;19914;-84
2022/12/06 02:09:49;;;;;;;;;;;3.10;90.50;;;;;;4992677;28;20265;-84
2022/12/06 02:12:15;;;;;;;;;;;3.10;90.50;;;;;;4992058;28;19977;-84
2022/12/06 02:14:42;;;;;;;;;;;3.10;90.50;;;;;;5001259;28;19953;-84
2022/12/06 02:17:19;;;;;;;;;;;3.10;90.50;;;;;;4970041;28;20012;-83
2022/12/06 02:19:53;;;;;;;;;;;3.10;90.50;;;;;;4991706;28;20129;-84
2022/12/06 02:22:19;;;;;;;;;;;3.20;90.20;;;;;;4988838;28;19965;-83
2022/12/06 02:24:47;;;;;;;;;;;3.20;90.20;;;;;;4996772;28;19920;-84
2022/12/06 02:27:33;;;;;;;;;;;3.20;90.10;;;;;;4996714;28;19940;-83
2022/12/06 02:30:08;;;;;;;;;;;3.20;90.10;;;;;;5009018;28;19910;-85
2022/12/06 02:32:33;;;;;;;;;;;3.20;90.00;;;;;;4977385;28;19910;-84
2022/12/06 02:35:05;;;;;;;;;;;3.20;90.00;;;;;;4991149;28;19968;-84
2022/12/06 02:37:35;;;;;;;;;;;3.10;90.00;;;;;;4989235;28;20357;-85
2022/12/06 02:40:10;;;;;;;;;;;3.10;90.20;;;;;;4991992;28;19952;-84
2022/12/06 02:42:40;;;;;;;;;;;3.10;90.40;;;;;;4992116;28;20360;-84
2022/12/06 02:45:11;;;;;;;;;;;3.10;90.20;;;;;;4997259;28;19918;-84
2022/12/06 02:47:37;;;;;;;;;;;3.10;90.30;;;;;;4976194;28;19981;-85
2022/12/06 02:50:05;;;;;;;;;;;3.10;90.50;;;;;;4998630;28;19980;-83
2022/12/06 02:52:31;;;;;;;;;;;3.10;90.40;;;;;;4997409;28;19914;-85
2022/12/06 02:54:58;;;;;;;;;;;3.10;90.50;;;;;;4994127;28;19914;-84
2022/12/06 02:57:33;;;;;;;;;;;3.10;90.50;;;;;;4983681;28;19922;-85
2022/12/06 02:59:59;;;;;;;;;;;3.00;90.50;;;;;;4991385;28;19914;-84
2022/12/06 03:02:24;;;;;;;;;;;3.00;90.60;;;;;;4971000;28;20013;-84
2022/12/06 03:05:05;;;;;;;;;;;3.00;90.50;;;;;;4974529;28;19922;-84
2022/12/06 03:07:34;;;;;;;;;;;3.00;90.50;;;;;;4996138;28;19914;-84
2022/12/06 03:10:14;;;;;;;;;;;3.00;90.70;;;;;;4987845;28;19918;-86
2022/12/06 03:13:06;;;;;;;;;;;2.90;90.70;;;;;;4991226;28;19959;-85
2022/12/06 03:15:44;;;;;;;;;;;3.00;90.90;;;;;;4966239;28;19949;-85
2022/12/06 03:18:30;;;;;;;;;;;2.90;90.80;;;;;;4991447;28;19984;-84
2022/12/06 03:21:17;;;;;;;;;;;2.90;91.00;;;;;;4999695;28;19918;-85
2022/12/06 03:23:45;;;;;;;;;;;3.00;91.00;;;;;;4974159;28;19933;-84
2022/12/06 03:26:13;;;;;;;;;;;3.00;91.00;;;;;;4973795;28;20292;-84
2022/12/06 03:28:38;;;;;;;;;;;3.00;91.00;;;;;;4970107;28;19960;-85
2022/12/06 03:31:13;;;;;;;;;;;3.00;90.90;;;;;;4994340;28;20332;-84
2022/12/06 03:33:41;;;;;;;;;;;2.90;91.00;;;;;;4973844;28;20024;-84
2022/12/06 03:36:07;;;;;;;;;;;2.90;91.20;;;;;;4991347;28;19914;-85
2022/12/06 03:38:39;;;;;;;;;;;3.00;91.20;;;;;;4991136;28;19917;-84
2022/12/06 03:41:06;;;;;;;;;;;3.00;91.20;;;;;;4973999;28;19918;-86
2022/12/06 03:43:32;;;;;;;;;;;3.00;91.20;;;;;;4987048;28;20028;-84
2022/12/06 03:46:13;;;;;;;;;;;3.00;91.30;;;;;;4968598;28;19917;-84
2022/12/06 03:48:40;;;;;;;;;;;3.00;91.30;;;;;;4991802;28;20431;-84
2022/12/06 03:51:12;;;;;;;;;;;3.00;91.30;;;;;;4989498;28;19988;-82
2022/12/06 03:54:04;;;;;;;;;;;3.00;91.30;;;;;;4986747;28;19921;-82
2022/12/06 03:56:30;;;;;;;;;;;3.00;91.20;;;;;;4983176;28;19940;-83
2022/12/06 03:58:55;;;;;;;;;;;3.00;91.30;;;;;;4990787;28;19914;-82
2022/12/06 04:01:21;;;;;;;;;;;3.10;91.50;;;;;;4992280;28;19920;-85
2022/12/06 04:03:46;;;;;;;;;;;3.10;91.20;;;;;;4988397;28;20037;-83
2022/12/06 04:06:12;;;;;;;;;;;3.10;91.10;;;;;;5003786;28;19914;-84
2022/12/06 04:08:37;;;;;;;;;;;3.20;91.20;;;;;;4982441;28;19930;-84
2022/12/06 04:11:03;;;;;;;;;;;3.20;91.00;;;;;;5011494;28;19917;-83
2022/12/06 04:13:29;;;;;;;;;;;3.30;91.00;;;;;;4976895;28;19914;-83
2022/12/06 04:15:55;;;;;;;;;;;3.30;90.80;;;;;;4974626;28;20343;-83
2022/12/06 04:18:21;;;;;;;;;;;3.30;91.00;;;;;;4995534;28;20012;-82
2022/12/06 04:23:43;;;;;;;;;;;3.40;90.80;;;;;;4995884;28;19920;-83
2022/12/06 04:26:09;;;;;;;;;;;3.30;90.60;;;;;;4986211;28;20379;-84
2022/12/06 04:39:32;;;;;;;;;;;3.30;90.60;;;;;;4992963;28;20295;-83
2022/12/06 04:44:42;;;;;;;;;;;3.30;90.70;;;;;;4992901;28;19920;-83
2022/12/06 04:47:08;;;;;;;;;;;3.30;90.80;;;;;;4991662;28;20004;-83
2022/12/06 04:49:33;;;;;;;;;;;3.40;90.70;;;;;;4973232;28;19918;-83
2022/12/06 04:51:59;;;;;;;;;;;3.40;90.90;;;;;;4999732;28;19914;-83
2022/12/06 04:54:25;;;;;;;;;;;3.40;90.80;;;;;;4997089;28;19922;-83
2022/12/06 04:56:50;;;;;;;;;;;3.40;90.80;;;;;;4985798;28;19917;-83
2022/12/06 04:59:16;;;;;;;;;;;3.50;90.90;;;;;;4999229;28;19929;-83
2022/12/06 05:01:41;;;;;;;;;;;3.50;90.80;;;;;;4988305;28;19929;-83
2022/12/06 05:04:07;;;;;;;;;;;3.50;90.70;;;;;;4990332;28;19921;-83
2022/12/06 05:06:32;;;;;;;;;;;3.50;90.80;;;;;;4991090;28;20024;-83
2022/12/06 05:08:58;;;;;;;;;;;3.50;90.90;;;;;;4972603;28;20299;-83
2022/12/06 05:11:23;;;;;;;;;;;3.50;90.80;;;;;;4973090;28;20288;-83
2022/12/06 05:13:49;;;;;;;;;;;3.50;90.80;;;;;;4973039;28;20605;-83
2022/12/06 05:16:14;;;;;;;;;;;3.50;90.80;;;;;;4995315;28;20350;-85
2022/12/06 05:18:39;;;;;;;;;;;3.50;90.90;;;;;;4990605;28;20364;-85
2022/12/06 05:21:11;;;;;;;;;;;3.50;90.90;;;;;;4990449;28;20024;-84
2022/12/06 05:23:37;;;;;;;;;;;3.60;91.00;;;;;;4992148;28;20008;-83
2022/12/06 05:26:07;;;;;;;;;;;3.60;90.80;;;;;;4992242;28;19957;-84
2022/12/06 05:28:33;;;;;;;;;;;3.60;90.70;;;;;;4974464;28;19914;-85
2022/12/06 05:30:58;;;;;;;;;;;3.60;90.70;;;;;;4991474;28;19921;-84
2022/12/06 05:33:24;;;;;;;;;;;3.60;90.70;;;;;;5007884;28;19914;-85
2022/12/06 05:35:49;;;;;;;;;;;3.60;90.70;;;;;;4979038;28;19922;-86
2022/12/06 05:38:15;;;;;;;;;;;3.70;90.60;;;;;;4981829;28;20427;-85
2022/12/06 05:40:41;;;;;;;;;;;3.70;90.50;;;;;;4993356;28;20376;-85
2022/12/06 05:43:07;;;;;;;;;;;3.70;90.50;;;;;;4979544;28;20000;-86
2022/12/06 05:45:34;;;;;;;;;;;3.70;90.60;;;;;;4976704;28;19980;-87
2022/12/06 05:48:00;;;;;;;;;;;3.70;90.50;;;;;;4981071;28;20340;-86
2022/12/06 05:50:25;;;;;;;;;;;3.60;90.40;;;;;;4997584;28;19941;-86
2022/12/06 05:52:54;;;;;;;;;;;3.70;90.50;;;;;;4979317;28;19914;-87
2022/12/06 05:55:20;;;;;;;;;;;3.70;90.70;;;;;;4975689;28;20013;-84
2022/12/06 05:57:45;;;;;;;;;;;3.70;90.70;;;;;;4982455;28;19922;-84
2022/12/06 06:00:11;;;;;;;;;;;3.70;90.60;;;;;;4972519;28;19997;-87
2022/12/06 06:02:36;;;;;;;;;;;3.70;90.40;;;;;;4975050;28;19999;-84
2022/12/06 06:05:02;;;;;;;;;;;3.70;90.50;;;;;;4973286;28;20494;-85
2022/12/06 06:07:28;;;;;;;;;;;3.80;90.50;;;;;;4999868;28;20390;-84
2022/12/06 06:09:53;;;;;;;;;;;3.80;90.40;;;;;;4975513;28;19918;-84
2022/12/06 06:12:19;;;;;;;;;;;3.90;90.50;;;;;;5007227;28;19971;-84
2022/12/06 06:14:47;;;;;;;;;;;3.80;90.30;;;;;;5009291;28;19914;-85
2022/12/06 06:17:13;;;;;;;;;;;3.80;90.50;;;;;;4996863;28;19917;-84
2022/12/06 06:19:38;;;;;;;;;;;3.90;90.30;;;;;;4986392;28;19914;-84
2022/12/06 06:22:04;;;;;;;;;;;3.90;90.40;;;;;;4997646;28;19968;-85
2022/12/06 06:24:33;;;;;;;;;;;3.90;90.40;;;;;;4979090;28;19925;-86
2022/12/06 06:26:59;;;;;;;;;;;3.90;90.40;;;;;;5003580;28;19921;-83
2022/12/06 06:29:24;;;;;;;;;;;3.90;90.40;;;;;;4991003;28;20349;-83
2022/12/06 06:31:50;;;;;;;;;;;3.80;90.40;;;;;;5001358;28;20482;-84
2022/12/06 06:34:15;;;;;;;;;;;3.80;90.50;;;;;;4990443;28;19956;-83
2022/12/06 06:36:41;;;;;;;;;;;3.80;90.50;;;;;;4977603;28;19980;-84
2022/12/06 06:39:06;;;;;;;;;;;3.80;90.60;;;;;;4997275;28;19909;-84
2022/12/06 06:41:31;;;;;;;;;;;3.90;90.50;;;;;;4984702;28;20294;-84
2022/12/06 06:43:57;;;;;;;;;;;3.80;90.60;;;;;;5009076;28;20407;-83
2022/12/06 06:46:22;;;;;;;;;;;3.90;90.60;;;;;;4995904;28;20256;-83
2022/12/06 06:48:48;;;;;;;;;;;3.80;90.60;;;;;;4997969;28;20247;-84
2022/12/06 06:51:13;;;;;;;;;;;3.90;90.70;;;;;;4979565;28;19914;-84
2022/12/06 06:53:39;;;;;;;;;;;3.90;90.70;;;;;;4997008;28;19997;-84
2022/12/06 06:56:05;;;;;;;;;;;4.00;90.50;;;;;;4996004;28;20427;-84
2022/12/06 06:58:30;;;;;;;;;;;4.00;90.60;;;;;;4963400;28;20395;-83
2022/12/06 07:00:58;;;;;;;;;;;4.00;90.60;;;;;;4977638;28;19928;-84
2022/12/06 07:03:23;;;;;;;;;;;4.00;90.50;;;;;;4979122;28;20394;-85
2022/12/06 07:05:54;;;;;;;;;;;4.10;90.50;;;;;;4977607;28;19921;-84
2022/12/06 07:08:20;;;;;;;;;;;4.00;90.40;;;;;;4977394;28;19922;-84
2022/12/06 07:10:47;;;;;;;;;;;4.10;90.50;;;;;;4998300;28;20013;-84
2022/12/06 07:13:16;;;;;;;;;;;4.10;90.50;;;;;;4989537;28;19968;-84
2022/12/06 07:15:42;;;;;;;;;;;4.10;90.40;;;;;;4987992;28;20033;-85
2022/12/06 07:18:07;;;;;;;;;;;4.10;90.40;;;;;;4976121;28;20419;-83
2022/12/06 07:20:33;;;;;;;;;;;4.10;90.40;;;;;;4998374;28;19914;-83
2022/12/06 07:22:58;;;;;;;;;;;4.10;90.40;;;;;;4994396;28;19980;-83
2022/12/06 07:25:24;;;;;;;;;;;4.20;90.50;;;;;;4986930;28;19921;-83
2022/12/06 07:27:49;;;;;;;;;;;4.20;90.40;;;;;;5047360;23;19925;-87
2022/12/06 07:30:15;;;;;;;;;;;4.20;90.50;;;;;;5060769;28;19912;-87
2022/12/06 07:32:40;;;;;;;;;;;4.20;90.50;;;;;;5054084;28;19956;-86
2022/12/06 07:35:06;;;;;;;;;;;4.20;90.40;;;;;;5052769;28;20305;-87
2022/12/06 07:37:31;;;;;;;;;;;4.20;90.40;;;;;;5050833;28;19944;-84
2022/12/06 07:39:57;;;;;;;;;;;4.20;90.40;;;;;;5061036;28;20458;-88
2022/12/06 07:45:08;;;;;;;;;;;4.20;90.40;;;;;;5051105;28;19921;-85
2022/12/06 07:50:24;;;;;;;;;;;4.20;90.40;;;;;;5080223;28;19901;-84
2022/12/06 07:52:49;;;;;;;;;;;4.20;90.60;;;;;;5077605;28;19923;-84
2022/12/06 07:55:15;;;;;;;;;;;4.20;90.50;;;;;;5056115;28;19916;-84
2022/12/06 07:57:40;;;;;;;;;;;4.30;90.60;;;;;;5066755;28;19916;-85
2022/12/06 08:00:08;;;;;;;;;;;4.30;90.40;;;;;;5048964;28;19923;-85
2022/12/06 08:02:34;;;;;;;;;;;4.40;90.60;;;;;;5053120;28;20370;-84
2022/12/06 08:04:59;;;;;;;;;;;4.40;90.50;;;;;;5057173;28;19915;-85
2022/12/06 08:07:25;;;;;;;;;;;4.30;90.40;;;;;;5060922;28;19921;-85
2022/12/06 08:09:52;;;;;;;;;;;4.30;90.50;;;;;;5056840;28;19992;-84
2022/12/06 08:12:18;;;;;;;;;;;4.40;90.50;;;;;;5068781;28;20016;-83
2022/12/06 08:14:43;;;;;;;;;;;4.50;90.50;;;;;;5038228;28;19952;-81
2022/12/06 08:17:09;;;;;;;;;;;4.50;90.40;;;;;;5037631;28;19959;-82
2022/12/06 08:19:34;;;;;;;;;;;4.50;90.40;;;;;;5047679;28;19943;-83
2022/12/06 08:22:00;;;;;;;;;;;4.60;90.60;;;;;;5047972;28;19913;-82
2022/12/06 08:24:25;;;;;;;;;;;4.60;90.30;;;;;;5055914;28;19928;-82
2022/12/06 08:26:52;;;;;;;;;;;4.60;90.30;;;;;;5054111;28;19916;-83
2022/12/06 08:29:18;;;;;;;;;;;4.60;90.20;;;;;;5049122;28;19963;-82
2022/12/06 08:31:44;;;;;;;;;;;4.80;90.30;;;;;;5053883;28;19913;-84
2022/12/06 08:34:10;;;;;;;;;;;4.70;90.20;;;;;;5051397;28;19932;-83
2022/12/06 08:36:36;;;;;;;;;;;4.80;90.10;;;;;;5046870;28;19920;-80
2022/12/06 08:39:01;;;;;;;;;;;4.80;90.20;;;;;;5048857;28;19921;-82
2022/12/06 08:44:12;;;;;;;;;;;4.80;90.30;;;;;;5044596;28;19935;-83
2022/12/06 08:46:38;;;;;;;;;;;4.80;90.00;;;;;;5042232;28;19917;-82
2022/12/06 08:49:03;;;;;;;;;;;4.90;90.00;;;;;;5046610;28;19912;-83
2022/12/06 08:51:29;;;;;;;;;;;4.90;90.10;;;;;;5049627;28;20043;-82
2022/12/06 08:53:55;;;;;;;;;;;4.90;90.00;;;;;;5044132;28;19913;-83
2022/12/06 08:56:21;;;;;;;;;;;4.90;90.00;;;;;;5040169;28;20270;-82
2022/12/06 08:58:47;;;;;;;;;;;4.80;90.30;;;;;;5045499;28;19920;-83
2022/12/06 09:01:14;;;;;;;;;;;5.00;90.30;;;;;;5047230;28;19928;-83
2022/12/06 09:03:40;;;;;;;;;;;4.90;90.10;;;;;;5044181;28;20384;-83
2022/12/06 09:06:06;;;;;;;;;;;5.00;90.30;;;;;;5038999;28;19952;-84
2022/12/06 09:08:32;;;;;;;;;;;5.00;90.50;;;;;;5043910;28;20496;-86
2022/12/06 09:10:57;;;;;;;;;;;5.00;90.40;;;;;;5047695;28;19917;-84
2022/12/06 09:13:22;;;;;;;;;;;5.10;90.30;;;;;;5060554;28;20381;-85
2022/12/06 09:15:51;;;;;;;;;;;5.10;90.10;;;;;;5044271;28;20354;-87
2022/12/06 09:18:16;;;;;;;;;;;5.10;90.00;;;;;;5048657;28;19927;-85
2022/12/06 09:20:42;;;;;;;;;;;5.10;90.00;;;;;;5051406;28;19913;-83
2022/12/06 09:23:08;;;;;;;;;;;5.10;90.20;;;;;;5046871;28;19955;-86
2022/12/06 09:25:33;;;;;;;;;;;5.20;90.20;;;;;;5045309;28;19951;-86
2022/12/06 09:27:58;;;;;;;;;;;5.10;90.10;;;;;;5053099;28;19940;-85
2022/12/06 09:30:24;;;;;;;;;;;5.20;90.20;;;;;;5051737;28;19916;-84
2022/12/06 09:32:50;;;;;;;;;;;5.30;89.90;;;;;;5052159;28;19958;-85
2022/12/06 09:35:15;;;;;;;;;;;5.20;89.70;;;;;;5048903;28;19939;-84
2022/12/06 09:37:41;;;;;;;;;;;5.20;89.90;;;;;;5053501;28;19966;-84
2022/12/06 09:40:11;;;;;;;;;;;5.20;89.90;;;;;;5053107;28;19982;-83
2022/12/06 09:42:55;;;;;;;;;;;5.20;90.00;;;;;;5057255;28;19988;-83
2022/12/06 09:45:26;;;;;;;;;;;5.30;90.00;;;;;;5053478;28;20373;-83
2022/12/06 09:48:05;;;;;;;;;;;5.20;89.90;;;;;;5060475;28;19913;-84
2022/12/06 09:50:33;;;;;;;;;;;5.30;89.80;;;;;;5054303;28;19963;-83
2022/12/06 09:53:20;;;;;;;;;;;5.30;89.90;;;;;;5066652;28;19936;-83
2022/12/06 09:56:00;;;;;;;;;;;5.30;89.90;;;;;;5069016;28;19968;-83
2022/12/06 09:58:34;;;;;;;;;;;5.40;89.90;;;;;;5069760;28;20302;-83
2022/12/06 10:00:59;;;;;;;;;;;5.50;89.80;;;;;;5053761;28;19966;-83
2022/12/06 10:03:43;;;;;;;;;;;5.50;89.90;;;;;;5055646;28;20300;-83
2022/12/06 10:06:13;;;;;;;;;;;5.60;89.60;;;;;;5068052;28;19912;-82
2022/12/06 10:08:52;;;;;;;;;;;5.50;89.40;;;;;;5054605;28;19979;-82
2022/12/06 10:11:29;;;;;;;;;;;5.50;89.30;;;;;;5076251;28;20184;-83
2022/12/06 10:14:07;;;;;;;;;;;5.60;89.00;;;;;;5068202;28;19913;-82
2022/12/06 10:16:35;;;;;;;;;;;5.60;88.90;;;;;;5063857;28;19966;-84
2022/12/06 10:19:19;;;;;;;;;;;5.50;89.10;;;;;;5073221;28;19912;-83
2022/12/06 10:21:45;;;;;;;;;;;5.70;89.10;;;;;;5057497;28;19944;-83
2022/12/06 10:24:29;;;;;;;;;;;5.60;89.10;;;;;;5050195;28;19913;-83
2022/12/06 10:26:58;;;;;;;;;;;5.70;89.00;;;;;;5048798;28;20011;-84
2022/12/06 10:29:37;;;;;;;;;;;5.70;89.00;;;;;;5060626;28;19912;-83
2022/12/06 10:32:23;;;;;;;;;;;5.70;88.70;;;;;;5059360;28;19966;-84
2022/12/06 10:34:52;;;;;;;;;;;5.70;88.60;;;;;;5041246;28;19935;-83
2022/12/06 10:37:27;;;;;;;;;;;5.70;88.80;;;;;;5075228;28;19951;-83
2022/12/06 10:40:05;;;;;;;;;;;5.80;88.90;;;;;;5067713;28;19913;-83
2022/12/06 10:42:37;;;;;;;;;;;5.80;89.00;;;;;;5074291;28;19919;-85
2022/12/06 10:48:14;;;;;;;;;;;5.90;88.80;;;;;;5052652;28;19971;-84
2022/12/06 10:50:39;;;;;;;;;;;5.90;88.70;;;;;;5051528;28;19916;-86
2022/12/06 10:53:10;;;;;;;;;;;6.00;88.70;;;;;;5052469;28;19999;-85
2022/12/06 10:56:05;;;;;;;;;;;6.00;88.60;;;;;;5060099;28;19924;-85
2022/12/06 10:58:37;;;;;;;;;;;6.00;88.30;;;;;;5025170;28;19924;-86
2022/12/06 11:01:05;;;;;;;;;;;6.10;88.20;;;;;;5047519;28;19913;-84
2022/12/06 11:03:39;;;;;;;;;;;6.00;88.40;;;;;;5057767;28;19919;-84
2022/12/06 11:06:11;;;;;;;;;;;6.10;88.40;;;;;;5061837;28;20281;-84
2022/12/06 11:08:44;;;;;;;;;;;6.10;88.40;;;;;;5056129;28;19917;-82
2022/12/06 11:11:18;;;;;;;;;;;6.10;88.60;;;;;;5049979;28;19920;-82
2022/12/06 11:13:46;;;;;;;;;;;6.20;88.30;;;;;;5042697;28;19920;-83
2022/12/06 11:16:16;;;;;;;;;;;6.20;88.20;;;;;;5047239;28;19921;-82
2022/12/06 11:18:42;;;;;;;;;;;6.20;88.30;;;;;;5060494;28;19917;-84
2022/12/06 11:21:26;;;;;;;;;;;6.10;87.90;;;;;;5057232;28;19917;-82
2022/12/06 11:24:09;;;;;;;;;;;6.20;88.00;;;;;;5048120;28;20439;-81
2022/12/06 11:26:48;;;;;;;;;;;6.20;87.60;;;;;;5048909;28;19938;-80
2022/12/06 11:29:14;;;;;;;;;;;6.10;87.90;;;;;;5054622;28;20413;-82
2022/12/06 11:31:42;;;;;;;;;;;6.10;88.20;;;;;;5061109;28;19912;-81
2022/12/06 11:34:16;;;;;;;;;;;6.10;88.40;;;;;;5059447;28;20385;-83
2022/12/06 11:36:43;;;;;;;;;;;6.10;88.20;;;;;;5057295;28;20373;-82
2022/12/06 11:39:13;;;;;;;;;;;6.20;88.40;;;;;;5055785;28;19913;-82
2022/12/06 11:41:39;;;;;;;;;;;6.20;88.30;;;;;;5065334;28;19980;-83
2022/12/06 11:44:04;;;;;;;;;;;6.20;88.10;;;;;;5061822;28;20368;-81
2022/12/06 11:46:30;;;;;;;;;;;6.10;88.30;;;;;;5054784;28;19921;-83
2022/12/06 11:49:03;;;;;;;;;;;6.30;88.50;;;;;;5061882;28;19954;-83
2022/12/06 11:51:28;;;;;;;;;;;6.30;87.80;;;;;;5057174;28;20301;-81
2022/12/06 11:53:56;;;;;;;;;;;6.30;87.60;;;;;;5065577;28;19946;-82
2022/12/06 11:56:27;;;;;;;;;;;6.40;87.20;;;;;;5057981;28;20418;-82
2022/12/06 11:59:01;;;;;;;;;;;6.30;86.80;;;;;;5058978;28;19916;-82
2022/12/06 12:01:41;;;;;;;;;;;6.30;86.90;;;;;;5063146;28;19920;-82
2022/12/06 12:04:22;;;;;;;;;;;6.30;86.80;;;;;;5053466;28;19956;-83
2022/12/06 12:06:48;;;;;;;;;;;6.20;87.00;;;;;;5066937;28;21697;-82
2022/12/06 12:09:17;;;;;;;;;;;6.30;86.90;;;;;;5062310;28;19940;-82
2022/12/06 12:11:42;;;;;;;;;;;6.20;86.40;;;;;;5062759;28;20373;-84
2022/12/06 12:14:23;;;;;;;;;;;6.20;87.10;;;;;;5064666;28;19912;-83
2022/12/06 12:16:50;;;;;;;;;;;6.30;87.00;;;;;;5052857;28;19991;-82
2022/12/06 12:19:36;;;;;;;;;;;6.20;87.00;;;;;;5053123;28;20520;-81
2022/12/06 12:22:13;;;;;;;;;;;6.20;86.60;;;;;;5051600;28;19940;-81
2022/12/06 12:24:48;;;;;;;;;;;6.10;87.00;;;;;;5049925;28;20011;-82
2022/12/06 12:27:32;;;;;;;;;;;6.20;87.00;;;;;;5054967;28;19924;-81
2022/12/06 12:30:16;;;;;;;;;;;6.20;87.20;;;;;;5052179;28;19913;-81
2022/12/06 12:32:43;;;;;;;;;;;6.20;86.70;;;;;;5051387;28;19974;-80
2022/12/06 12:35:21;;;;;;;;;;;6.00;86.60;;;;;;5074623;28;19972;-81
2022/12/06 12:37:47;;;;;;;;;;;5.90;86.90;;;;;;5075859;28;19920;-82
2022/12/06 12:40:27;;;;;;;;;;;5.80;87.20;;;;;;5059286;28;19963;-81
2022/12/06 12:43:16;;;;;;;;;;;5.70;86.80;;;;;;5066468;28;19920;-82
2022/12/06 12:46:01;;;;;;;;;;;5.70;87.40;;;;;;5053726;28;20329;-82
2022/12/06 12:48:27;;;;;;;;;;;5.80;87.40;;;;;;5052018;28;19913;-82
2022/12/06 12:50:53;;;;;;;;;;;5.90;87.40;;;;;;5059301;28;19936;-81
2022/12/06 12:53:28;;;;;;;;;;;6.00;87.50;;;;;;5062182;28;19979;-80
2022/12/06 12:56:04;;;;;;;;;;;6.10;87.50;;;;;;5084403;28;19912;-82
2022/12/06 12:58:30;;;;;;;;;;;6.10;87.40;;;;;;5059042;28;19916;-79
2022/12/06 13:01:00;;;;;;;;;;;6.30;86.30;;;;;;5072124;28;21280;-80
2022/12/06 13:03:26;;;;;;;;;;;6.20;86.30;;;;;;5080394;28;19905;-83
2022/12/06 13:05:52;;;;;;;;;;;6.30;86.20;;;;;;5047349;28;19913;-83
2022/12/06 13:08:20;;;;;;;;;;;6.40;85.40;;;;;;5052439;28;19913;-82
2022/12/06 13:10:46;;;;;;;;;;;6.30;85.00;;;;;;5056161;28;19935;-81
2022/12/06 13:13:17;;;;;;;;;;;6.50;85.60;;;;;;5054434;28;20280;-82
2022/12/06 13:15:46;;;;;;;;;;;6.60;85.20;;;;;;5048320;28;19924;-82
2022/12/06 13:18:18;;;;;;;;;;;6.60;84.60;;;;;;5037506;28;19964;-81
2022/12/06 13:20:44;;;;;;;;;;;6.60;84.40;;;;;;5058105;28;19913;-84
2022/12/06 13:23:17;;;;;;;;;;;6.60;83.60;;;;;;5048869;28;19919;-85
2022/12/06 13:25:53;;;;;;;;;;;6.60;84.60;;;;;;5060150;28;19921;-83
2022/12/06 13:28:21;;;;;;;;;;;6.50;84.40;;;;;;5050334;28;19921;-82
2022/12/06 13:30:49;;;;;;;;;;;6.50;83.50;;;;;;5051022;28;19943;-83
2022/12/06 13:33:17;;;;;;;;;;;6.50;83.30;;;;;;5051668;28;19912;-81
2022/12/06 13:36:03;;;;;;;;;;;6.50;82.60;;;;;;5052410;28;19970;-83
2022/12/06 13:38:33;;;;;;;;;;;6.40;83.10;;;;;;5057960;28;19905;-82
2022/12/06 13:41:00;;;;;;;;;;;6.40;83.40;;;;;;5054231;28;19917;-81
2022/12/06 13:43:25;;;;;;;;;;;6.50;81.90;;;;;;5048300;28;19948;-84
2022/12/06 13:46:09;;;;;;;;;;;6.30;83.60;;;;;;5052748;28;20382;-83
2022/12/06 13:48:51;;;;;;;;;;;6.30;83.60;;;;;;5044975;28;20000;-83
2022/12/06 13:51:31;;;;;;;;;;;6.20;83.30;;;;;;5060957;28;19921;-82
2022/12/06 13:54:17;;;;;;;;;;;6.20;83.70;;;;;;5055845;28;19924;-82
2022/12/06 13:56:42;;;;;;;;;;;6.20;84.20;;;;;;5008399;28;20146;-83
2022/12/06 13:59:11;;;;;;;;;;;6.20;83.00;;;;;;5043585;28;20458;-84
2022/12/06 14:01:40;;;;;;;;;;;6.00;83.90;;;;;;5036495;28;19924;-83
2022/12/06 14:04:26;;;;;;;;;;;6.00;83.70;;;;;;5049039;28;19912;-82
2022/12/06 14:06:55;;;;;;;;;;;6.00;84.60;;;;;;5045524;28;20378;-84
2022/12/06 14:09:22;;;;;;;;;;;6.00;85.00;;;;;;5041562;28;19920;-83
2022/12/06 14:11:48;;;;;;;;;;;6.00;84.00;;;;;;5039500;28;19924;-82
2022/12/06 14:14:15;;;;;;;;;;;6.00;84.20;;;;;;5043861;28;19917;-83
2022/12/06 14:16:42;;;;;;;;;;;6.00;83.80;;;;;;5043307;28;19920;-86
2022/12/06 14:19:28;;;;;;;;;;;6.00;84.30;;;;;;5043789;28;19920;-85
2022/12/06 14:21:54;;;;;;;;;;;6.00;83.90;;;;;;5037569;28;20409;-85
2022/12/06 14:24:32;;;;;;;;;;;6.00;84.50;;;;;;5043196;28;20390;-83
2022/12/06 14:27:02;;;;;;;;;;;6.10;84.90;;;;;;5039057;28;19921;-83
2022/12/06 14:29:27;;;;;;;;;;;6.00;84.30;;;;;;5041329;28;20090;-82
2022/12/06 14:31:53;;;;;;;;;;;6.00;85.00;;;;;;5036209;28;20055;-83
2022/12/06 14:34:39;;;;;;;;;;;6.00;85.20;;;;;;5051092;28;19921;-85
2022/12/06 14:37:17;;;;;;;;;;;6.00;85.30;;;;;;5047448;28;19917;-85
2022/12/06 14:39:49;;;;;;;;;;;5.90;85.40;;;;;;5054451;28;19925;-84
2022/12/06 14:44:59;;;;;;;;;;;5.90;85.80;;;;;;5050055;28;20058;-84
2022/12/06 14:47:25;;;;;;;;;;;5.90;85.40;;;;;;5051101;28;19920;-82
2022/12/06 14:52:24;;;;;;;;;;;5.90;85.60;;;;;;5065042;22;19929;-84
2022/12/06 14:54:50;;;;;;;;;;;5.90;85.90;;;;;;5037306;28;19921;-84
2022/12/06 14:57:18;;;;;;;;;;;6.00;85.40;;;;;;5028065;28;19929;-82
2022/12/06 14:59:43;;;;;;;;;;;5.90;85.70;;;;;;5046949;28;19994;-85
2022/12/06 15:02:22;;;;;;;;;;;5.90;85.90;;;;;;5042744;28;20653;-81
2022/12/06 15:04:48;;;;;;;;;;;5.90;86.00;;;;;;5046477;28;19920;-81
2022/12/06 15:07:32;;;;;;;;;;;5.80;85.90;;;;;;5031621;28;19920;-82
2022/12/06 15:10:06;;;;;;;;;;;5.80;86.40;;;;;;5036171;28;20295;-82
2022/12/06 15:15:36;;;;;;;;;;;5.90;86.20;;;;;;5021067;28;19924;-82
2022/12/06 15:18:03;;;;;;;;;;;5.90;86.40;;;;;;5039440;28;19944;-81